createdAt,value
2019-02-12T00:01:32.496Z,68.12
2019-02-12T00:04:38.929Z,68.32
2019-02-12T00:07:45.286Z,69.04
2019-02-12T00:10:51.554Z,68.32
2019-02-12T00:13:57.834Z,67.94
2019-02-12T00:17:04.124Z,68.93
2019-02-12T00:20:10.506Z,68.26
2019-02-12T00:23:16.911Z,69.52
2019-02-12T00:26:23.325Z,68.70
2019-02-12T00:29:29.583Z,69.15
2019-02-12T00:32:36.046Z,69.57
2019-02-12T00:35:42.370Z,70.06
2019-02-12T00:38:48.729Z,69.57
2019-02-12T00:41:55.200Z,71.18
2019-02-12T00:45:01.509Z,70.38
2019-02-12T00:48:07.743Z,68.98
2019-02-12T00:51:17.741Z,69.23
2019-02-12T00:54:24.223Z,70.26
2019-02-12T00:57:30.666Z,69.57
2019-02-12T01:00:37.020Z,69.18
2019-02-12T01:03:43.311Z,69.17
2019-02-12T01:06:50.996Z,69.95
2019-02-12T01:09:57.524Z,70.79
2019-02-12T01:13:03.947Z,70.00
2019-02-12T01:16:10.324Z,70.22
2019-02-12T01:19:16.588Z,69.40
2019-02-12T01:22:22.849Z,70.82
2019-02-12T01:25:29.213Z,69.33
2019-02-12T01:28:35.550Z,70.48
2019-02-12T01:31:41.969Z,70.67
2019-02-12T01:34:48.285Z,69.96
2019-02-12T01:37:54.943Z,69.84
2019-02-12T01:41:01.271Z,69.89
2019-02-12T01:44:07.624Z,69.92
2019-02-12T01:47:14.019Z,69.96
2019-02-12T01:50:20.278Z,70.41
2019-02-12T01:53:26.622Z,71.20
2019-02-12T01:56:33.035Z,70.33
2019-02-12T01:59:39.374Z,70.08
2019-02-12T02:02:45.749Z,70.15
2019-02-12T02:05:52.063Z,71.04
2019-02-12T02:08:58.637Z,69.96
2019-02-12T02:12:05.118Z,69.32
2019-02-12T02:15:11.657Z,69.84
2019-02-12T02:18:18.094Z,69.58
2019-02-12T02:21:24.361Z,69.62
2019-02-12T02:24:30.641Z,71.62
2019-02-12T02:27:37.053Z,70.57
2019-02-12T02:30:43.431Z,70.00
2019-02-12T02:33:49.878Z,70.60
2019-02-12T02:36:56.175Z,70.60
2019-02-12T02:40:02.510Z,69.64
2019-02-12T02:43:08.907Z,69.88
2019-02-12T02:46:15.179Z,69.22
2019-02-12T02:49:21.563Z,68.74
2019-02-12T02:52:27.942Z,71.82
2019-02-12T02:55:34.189Z,68.84
2019-02-12T02:58:41.670Z,68.85
2019-02-12T03:01:48.015Z,69.55
2019-02-12T03:04:54.412Z,68.41
2019-02-12T03:08:00.678Z,67.34
2019-02-12T03:11:08.104Z,68.67
2019-02-12T03:14:15.461Z,67.57
2019-02-12T03:17:22.011Z,67.65
2019-02-12T03:20:28.769Z,67.48
2019-02-12T03:23:35.047Z,68.56
2019-02-12T03:26:41.411Z,68.10
2019-02-12T03:29:47.800Z,68.40
2019-02-12T03:32:54.175Z,67.29
2019-02-12T03:36:00.477Z,68.63
2019-02-12T03:39:06.939Z,67.32
2019-02-12T03:42:13.195Z,67.35
2019-02-12T03:45:19.546Z,67.81
2019-02-12T03:48:25.990Z,67.84
2019-02-12T03:51:32.316Z,66.87
2019-02-12T03:54:38.651Z,68.74
2019-02-12T03:57:44.928Z,68.42
2019-02-12T04:00:51.252Z,66.95
2019-02-12T04:03:57.663Z,67.05
2019-02-12T04:07:04.088Z,67.41
2019-02-12T04:10:10.361Z,67.47
2019-02-12T04:13:16.718Z,69.57
2019-02-12T04:16:23.069Z,67.93
2019-02-12T04:19:29.383Z,67.64
2019-02-12T04:22:36.791Z,67.98
2019-02-12T04:25:43.070Z,67.80
2019-02-12T04:28:49.398Z,67.83
2019-02-12T04:31:55.688Z,66.84
2019-02-12T04:35:01.999Z,68.02
2019-02-12T04:38:08.408Z,67.59
2019-02-12T04:41:14.767Z,68.02
2019-02-12T04:44:21.029Z,67.86
2019-02-12T04:47:27.367Z,67.50
2019-02-12T04:50:33.710Z,67.60
2019-02-12T04:53:40.088Z,68.35
2019-02-12T04:56:46.372Z,68.87
2019-02-12T04:59:52.715Z,68.33
2019-02-12T05:02:59.041Z,68.43
2019-02-12T05:06:05.405Z,68.72
2019-02-12T05:09:40.210Z,68.65
2019-02-12T05:12:52.506Z,68.20
2019-02-12T05:15:59.033Z,69.22
2019-02-12T05:19:05.422Z,68.79
2019-02-12T05:22:11.843Z,69.58
2019-02-12T05:25:18.148Z,69.69
2019-02-12T05:28:24.432Z,69.87
2019-02-12T05:31:30.770Z,69.87
2019-02-12T05:34:37.068Z,69.39
2019-02-12T05:37:43.437Z,69.98
2019-02-12T05:40:49.725Z,70.60
2019-02-12T05:43:56.059Z,70.41
2019-02-12T05:47:02.420Z,70.26
2019-02-12T05:50:10.978Z,70.43
2019-02-12T05:53:17.659Z,70.22
2019-02-12T05:56:24.201Z,71.03
2019-02-12T05:59:30.536Z,71.10
2019-02-12T06:02:37.971Z,70.03
2019-02-12T06:05:44.304Z,71.20
2019-02-12T06:08:51.740Z,70.49
2019-02-12T06:11:58.091Z,71.24
2019-02-12T06:15:04.829Z,71.04
2019-02-12T06:18:11.283Z,72.50
2019-02-12T06:21:18.087Z,70.57
2019-02-12T06:24:24.672Z,70.63
2019-02-12T06:27:31.077Z,71.35
2019-02-12T06:30:37.414Z,71.07
2019-02-12T06:33:43.818Z,70.52
2019-02-12T06:36:50.137Z,71.16
2019-02-12T06:39:56.647Z,70.88
2019-02-12T06:43:03.015Z,70.90
2019-02-12T06:46:12.637Z,70.95
2019-02-12T06:49:20.633Z,70.52
2019-02-12T06:52:31.216Z,70.78
2019-02-12T06:55:39.199Z,70.30
2019-02-12T06:59:00.577Z,70.60
2019-02-12T07:02:42.901Z,70.10
2019-02-12T07:06:19.826Z,70.48
2019-02-12T07:09:51.566Z,70.32
2019-02-12T07:13:18.503Z,70.03
2019-02-12T07:17:11.035Z,70.93
2019-02-12T07:21:19.763Z,70.93
2019-02-12T07:25:05.801Z,69.92
2019-02-12T07:28:30.559Z,68.88
2019-02-12T07:32:24.851Z,68.27
2019-02-12T07:36:17.970Z,67.72
2019-02-12T07:40:16.019Z,67.59
2019-02-12T07:44:14.482Z,67.84
2019-02-12T07:48:39.153Z,66.78
2019-02-12T07:52:30.538Z,66.28
2019-02-12T07:56:18.815Z,66.85
2019-02-12T08:00:04.806Z,65.60
2019-02-12T08:03:56.793Z,66.02
2019-02-12T08:07:23.862Z,65.43
2019-02-12T08:11:20.282Z,65.85
2019-02-12T08:15:21.291Z,66.14
2019-02-12T08:18:54.776Z,64.89
2019-02-12T08:22:40.069Z,65.41
2019-02-12T08:26:13.560Z,64.69
2019-02-12T08:29:47.338Z,66.06
2019-02-12T08:33:13.530Z,65.49
2019-02-12T08:36:43.480Z,64.46
2019-02-12T08:40:27.113Z,63.38
2019-02-12T08:44:10.734Z,62.83
2019-02-12T08:48:12.424Z,62.35
2019-02-12T08:51:43.862Z,63.03
2019-02-12T08:55:23.567Z,58.44
2019-02-12T08:58:38.244Z,58.93
2019-02-12T09:02:04.856Z,57.69
2019-02-12T09:05:53.887Z,58.16
2019-02-12T09:09:42.698Z,56.16
2019-02-12T09:13:10.221Z,54.46
2019-02-12T09:17:15.962Z,54.26
2019-02-12T09:21:06.455Z,52.24
2019-02-12T09:24:35.132Z,52.37
2019-02-12T09:28:28.607Z,54.83
2019-02-12T09:32:19.311Z,52.09
2019-02-12T09:35:40.321Z,52.26
2019-02-12T09:39:01.895Z,52.60
2019-02-12T09:42:39.840Z,53.12
2019-02-12T09:46:24.150Z,52.04
2019-02-12T09:50:01.115Z,52.47
2019-02-12T09:53:35.419Z,51.79
2019-02-12T09:57:13.640Z,50.82
2019-02-12T10:00:47.913Z,50.50
2019-02-12T10:04:31.323Z,51.15
2019-02-12T10:08:12.749Z,48.51
2019-02-12T10:12:09.558Z,49.12
2019-02-12T10:15:45.716Z,49.29
2019-02-12T10:19:06.822Z,51.06
2019-02-12T10:22:32.451Z,51.06
2019-02-12T10:25:46.324Z,49.90
2019-02-12T10:29:24.037Z,49.58
2019-02-12T10:32:28.857Z,49.40
2019-02-12T10:35:38.334Z,49.30
2019-02-12T10:38:46.755Z,49.21
2019-02-12T10:41:53.005Z,48.51
2019-02-12T10:44:59.377Z,49.21
2019-02-12T10:48:05.878Z,49.77
2019-02-12T10:51:12.609Z,50.99
2019-02-12T10:54:27.924Z,48.65
2019-02-12T10:57:37.924Z,48.88
2019-02-12T11:00:44.261Z,51.23
2019-02-12T11:03:52.445Z,51.41
2019-02-12T11:06:58.845Z,51.03
2019-02-12T11:10:05.485Z,50.73
2019-02-12T11:13:13.455Z,53.01
2019-02-12T11:16:19.795Z,52.57
2019-02-12T11:19:29.183Z,53.87
2019-02-12T11:22:35.505Z,52.60
2019-02-12T11:25:48.602Z,54.41
2019-02-12T11:28:55.345Z,53.44
2019-02-12T11:32:01.718Z,53.44
2019-02-12T11:35:08.780Z,55.15
2019-02-12T11:38:15.223Z,54.57
2019-02-12T11:41:21.650Z,54.52
2019-02-12T11:44:28.048Z,55.12
2019-02-12T11:47:34.438Z,54.46
2019-02-12T11:50:40.686Z,54.17
2019-02-12T11:53:47.858Z,53.97
2019-02-12T11:56:56.013Z,55.00
2019-02-12T12:00:02.583Z,54.31
2019-02-12T12:03:09.080Z,53.65
2019-02-12T12:06:15.553Z,53.39
2019-02-12T12:09:23.462Z,53.81
2019-02-12T12:12:32.131Z,53.55
2019-02-12T12:15:44.449Z,52.45
2019-02-12T12:18:50.852Z,52.17
2019-02-12T12:21:57.295Z,51.14
2019-02-12T12:25:03.626Z,50.72
2019-02-12T12:28:10.009Z,51.88
2019-02-12T12:31:19.449Z,50.60
2019-02-12T12:34:25.774Z,48.84
2019-02-12T12:37:32.278Z,48.85
2019-02-12T12:40:38.522Z,49.98
2019-02-12T12:43:44.953Z,49.25
2019-02-12T12:46:51.634Z,48.70
2019-02-12T12:49:59.182Z,49.50
2019-02-12T12:53:05.558Z,49.66
2019-02-12T12:56:11.872Z,49.87
2019-02-12T12:59:20.499Z,48.51
2019-02-12T13:02:28.824Z,48.04
2019-02-12T13:05:35.032Z,49.76
2019-02-12T13:08:41.384Z,48.07
2019-02-12T13:11:50.862Z,47.27
2019-02-12T13:14:58.674Z,47.47
2019-02-12T13:18:05.061Z,45.98
2019-02-12T13:21:11.298Z,45.72
2019-02-12T13:24:19.016Z,45.98
2019-02-12T13:27:25.291Z,47.03
2019-02-12T13:30:34.580Z,48.88
2019-02-12T13:33:44.106Z,48.70
2019-02-12T13:36:50.482Z,49.34
2019-02-12T13:39:56.799Z,51.06
2019-02-12T13:43:07.789Z,51.66
2019-02-12T13:46:15.811Z,51.33
2019-02-12T13:49:24.622Z,51.88
2019-02-12T13:52:33.766Z,51.80
2019-02-12T13:55:40.101Z,52.43
2019-02-12T13:58:46.443Z,52.33
2019-02-12T14:01:54.446Z,53.10
2019-02-12T14:05:01.923Z,53.48
2019-02-12T14:08:08.529Z,53.66
2019-02-12T14:11:18.206Z,54.46
2019-02-12T14:14:25.986Z,55.30
2019-02-12T14:17:34.715Z,55.84
2019-02-12T14:20:43.699Z,56.68
2019-02-12T14:23:50.156Z,56.53
2019-02-12T14:26:58.091Z,56.39
2019-02-12T14:30:07.927Z,56.44
2019-02-12T14:33:17.383Z,57.16
2019-02-12T14:36:26.844Z,57.22
2019-02-12T14:39:34.358Z,57.21
2019-02-12T14:42:40.682Z,56.58
2019-02-12T14:45:48.521Z,57.26
2019-02-12T14:49:09.776Z,57.24
2019-02-12T14:52:21.555Z,57.53
2019-02-12T14:55:33.737Z,57.56
2019-02-12T14:58:40.509Z,57.45
2019-02-12T15:01:46.938Z,57.39
2019-02-12T15:05:00.564Z,57.33
2019-02-12T15:08:08.413Z,56.76
2019-02-12T15:11:14.769Z,56.96
2019-02-12T15:14:23.264Z,56.70
2019-02-12T15:17:29.574Z,57.00
2019-02-12T15:20:35.937Z,57.32
2019-02-12T15:23:44.774Z,56.79
2019-02-12T15:26:51.201Z,57.26
2019-02-12T15:29:57.538Z,57.21
2019-02-12T15:33:05.463Z,56.85
2019-02-12T15:36:12.070Z,56.49
2019-02-12T15:39:20.794Z,57.07
2019-02-12T15:42:29.827Z,57.35
2019-02-12T15:45:36.150Z,57.24
2019-02-12T15:48:46.851Z,56.98
2019-02-12T15:51:54.664Z,57.47
2019-02-12T15:55:01.518Z,57.29
2019-02-12T15:58:08.139Z,57.72
2019-02-12T16:01:14.548Z,57.94
2019-02-12T16:04:21.666Z,58.18
2019-02-12T16:07:32.151Z,57.92
2019-02-12T16:10:42.009Z,57.56
2019-02-12T16:13:48.415Z,57.55
2019-02-12T16:16:54.965Z,58.17
2019-02-12T16:20:03.462Z,58.09
2019-02-12T16:23:09.805Z,58.13
2019-02-12T16:26:16.176Z,57.84
2019-02-12T16:29:22.721Z,58.67
2019-02-12T16:32:29.193Z,58.63
2019-02-12T16:35:35.572Z,58.31
2019-02-12T16:38:42.124Z,58.23
2019-02-12T16:41:50.119Z,57.65
2019-02-12T16:44:56.463Z,58.25
2019-02-12T16:48:02.744Z,58.52
2019-02-12T16:51:09.120Z,58.27
2019-02-12T16:54:15.554Z,58.35
2019-02-12T16:57:21.938Z,58.22
2019-02-12T17:00:28.297Z,58.59
2019-02-12T17:03:38.346Z,58.03
2019-02-12T17:06:44.883Z,58.16
2019-02-12T17:09:52.517Z,57.67
2019-02-12T17:12:59.976Z,57.80
2019-02-12T17:16:09.134Z,57.70
2019-02-12T17:19:17.035Z,57.36
2019-02-12T17:22:25.289Z,57.39
2019-02-12T17:25:33.378Z,57.20
2019-02-12T17:28:41.771Z,56.69
2019-02-12T17:31:48.791Z,57.44
2019-02-12T17:35:01.200Z,56.98
2019-02-12T17:38:03.098Z,56.75
2019-02-12T17:41:09.642Z,57.00
2019-02-12T17:44:15.925Z,57.39
2019-02-12T17:47:22.866Z,57.37
2019-02-12T17:50:31.179Z,57.19
2019-02-12T17:53:39.614Z,56.48
2019-02-12T17:56:48.979Z,56.62
2019-02-12T17:59:55.851Z,56.87
2019-02-12T18:03:03.022Z,57.11
2019-02-12T18:06:15.650Z,56.87
2019-02-12T18:09:42.408Z,57.22
2019-02-12T18:12:54.516Z,56.43
2019-02-12T18:16:00.978Z,56.21
2019-02-12T18:19:07.258Z,56.53
2019-02-12T18:22:13.609Z,56.32
2019-02-12T18:25:19.945Z,56.77
2019-02-12T18:28:26.200Z,56.58
2019-02-12T18:31:32.645Z,56.35
2019-02-12T18:34:39.019Z,56.47
2019-02-12T18:37:45.488Z,56.80
2019-02-12T18:40:51.806Z,56.15
2019-02-12T18:43:58.327Z,56.41
2019-02-12T18:47:04.782Z,56.93
2019-02-12T18:50:12.072Z,56.97
2019-02-12T18:53:18.579Z,57.09
2019-02-12T18:56:25.096Z,56.45
2019-02-12T18:59:31.430Z,56.07
2019-02-12T19:02:37.716Z,56.72
2019-02-12T19:05:44.075Z,56.60
2019-02-12T19:08:50.538Z,56.71
2019-02-12T19:11:57.016Z,57.52
2019-02-12T19:15:04.411Z,57.08
2019-02-12T19:18:18.194Z,57.17
2019-02-12T19:21:24.593Z,57.71
2019-02-12T19:24:31.044Z,57.71
2019-02-12T19:27:37.504Z,57.31
2019-02-12T19:30:43.848Z,57.79
2019-02-12T19:33:50.286Z,57.94
2019-02-12T19:36:56.743Z,58.01
2019-02-12T19:40:03.091Z,58.02
2019-02-12T19:43:09.406Z,58.10
2019-02-12T19:46:18.002Z,58.03
2019-02-12T19:49:24.392Z,58.03
2019-02-12T19:52:30.881Z,58.65
2019-02-12T19:55:39.081Z,59.29
2019-02-12T19:58:48.090Z,59.10
2019-02-12T20:01:54.508Z,58.96
2019-02-12T20:05:00.949Z,59.74
2019-02-12T20:08:08.723Z,59.72
2019-02-12T20:11:15.252Z,59.32
2019-02-12T20:14:22.967Z,59.24
2019-02-12T20:17:29.361Z,59.56
2019-02-12T20:20:35.754Z,59.65
2019-02-12T20:23:42.119Z,59.64
2019-02-12T20:26:48.515Z,59.53
2019-02-12T20:29:54.905Z,59.92
2019-02-12T20:33:01.299Z,59.82
2019-02-12T20:36:08.454Z,59.50
2019-02-12T20:39:14.915Z,60.01
2019-02-12T20:42:24.227Z,60.02
2019-02-12T20:45:30.928Z,60.64
2019-02-12T20:48:37.498Z,60.70
2019-02-12T20:51:44.202Z,60.64
2019-02-12T20:54:50.577Z,60.46
2019-02-12T20:57:58.044Z,60.87
2019-02-12T21:01:04.659Z,61.01
2019-02-12T21:04:13.163Z,60.50
2019-02-12T21:07:20.581Z,61.31
2019-02-12T21:10:28.242Z,60.74
2019-02-12T21:13:34.506Z,61.42
2019-02-12T21:16:40.840Z,61.51
2019-02-12T21:19:48.236Z,61.77
2019-02-12T21:22:54.710Z,61.80
2019-02-12T21:26:01.010Z,62.24
2019-02-12T21:29:07.364Z,62.51
2019-02-12T21:32:13.667Z,63.15
2019-02-12T21:35:21.593Z,64.07
2019-02-12T21:38:28.048Z,66.12
2019-02-12T21:41:34.558Z,69.44
2019-02-12T21:44:41.127Z,69.44
2019-02-12T21:47:47.850Z,70.65
2019-02-12T21:50:56.063Z,72.50
2019-02-12T21:54:02.492Z,73.11
2019-02-12T21:57:08.928Z,75.24
2019-02-12T22:00:15.965Z,76.37
2019-02-12T22:03:22.626Z,78.25
2019-02-12T22:06:29.089Z,78.10
2019-02-12T22:09:35.432Z,81.49
2019-02-12T22:12:41.824Z,81.25
2019-02-12T22:15:48.175Z,82.31
2019-02-12T22:18:54.524Z,82.52
2019-02-12T22:22:00.874Z,82.73
2019-02-12T22:25:07.558Z,85.21
2019-02-12T22:28:13.987Z,85.46
2019-02-12T22:31:20.413Z,84.65
2019-02-12T22:34:28.342Z,84.14
2019-02-12T22:37:34.641Z,85.04
2019-02-12T22:40:41.016Z,84.85
2019-02-12T22:43:47.966Z,85.74
2019-02-12T22:46:54.247Z,86.40
2019-02-12T22:50:00.448Z,86.28
2019-02-12T22:53:07.007Z,85.43
2019-02-12T22:56:13.351Z,85.77
2019-02-12T22:59:20.893Z,86.28
2019-02-12T23:02:27.310Z,86.14
2019-02-12T23:05:33.646Z,86.15
2019-02-12T23:08:40.003Z,86.63
2019-02-12T23:11:46.322Z,86.94
2019-02-12T23:14:52.683Z,87.12
2019-02-12T23:17:59.117Z,86.98
2019-02-12T23:21:05.466Z,87.10
2019-02-12T23:24:11.869Z,87.11
2019-02-12T23:27:33.320Z,87.07
2019-02-12T23:30:39.558Z,87.03
2019-02-12T23:33:45.898Z,86.07
2019-02-12T23:36:52.175Z,86.30
2019-02-12T23:39:58.533Z,85.69
2019-02-12T23:43:04.958Z,85.69
2019-02-12T23:46:11.309Z,85.62
2019-02-12T23:49:17.574Z,85.71
2019-02-12T23:52:23.958Z,84.73
2019-02-12T23:55:30.399Z,85.43
2019-02-12T23:58:36.651Z,85.50
